PN63 weather

Limerick Generating Station Heliport
Sanatoga, Pennsylvania, United States

Public forecast

Using degrees Fahrenheit for public forecast. Weather courtesy of forecast.io.

METAR (pilot weather report)

Closest report is Heritage Field, 1.3 nm (2.4 km) ENE. Retrieved 2019/09/19 02:54 UTC (41 minutes ago):

KPTW 190254Z AUTO 00000KT 10SM CLR 14/09 A3032 RMK AO2 SLP263 T01390089 51018

TAF (pilot weather forecast)

Forecast is more than 12 hours old.

Closest forecast is Reading Regional Carl A Spaatz Field, 19.5 nm (36.2 km) WNW. Retrieved 2019/09/18 00:30 UTC (1 day ago):

TAF KRDG 182328Z 1900/1924 VRB03KT P6SM SCT250 FM191400 06005KT P6SM SKC